sensor_id;sensor_type;location;lat;lon;timestamp;P1;durP1;ratioP1;P2;durP2;ratioP2
23304;SDS011;11821;51.456;8.844;2023-04-08T00:01:21;7.30;;;4.38;;
23304;SDS011;11821;51.456;8.844;2023-04-08T00:03:47;7.65;;;5.22;;
23304;SDS011;11821;51.456;8.844;2023-04-08T00:06:14;8.38;;;5.10;;
23304;SDS011;11821;51.456;8.844;2023-04-08T00:08:41;7.00;;;4.97;;
23304;SDS011;11821;51.456;8.844;2023-04-08T00:11:07;5.43;;;4.75;;
23304;SDS011;11821;51.456;8.844;2023-04-08T00:13:34;8.40;;;5.05;;
23304;SDS011;11821;51.456;8.844;2023-04-08T00:16:00;6.50;;;5.45;;
23304;SDS011;11821;51.456;8.844;2023-04-08T00:18:27;10.68;;;5.68;;
23304;SDS011;11821;51.456;8.844;2023-04-08T00:20:54;16.13;;;5.00;;
23304;SDS011;11821;51.456;8.844;2023-04-08T00:23:21;13.98;;;5.60;;
23304;SDS011;11821;51.456;8.844;2023-04-08T00:25:48;10.02;;;5.32;;
23304;SDS011;11821;51.456;8.844;2023-04-08T00:28:15;15.93;;;5.35;;
23304;SDS011;11821;51.456;8.844;2023-04-08T00:30:42;29.98;;;6.68;;
23304;SDS011;11821;51.456;8.844;2023-04-08T00:33:09;18.25;;;7.38;;
23304;SDS011;11821;51.456;8.844;2023-04-08T00:35:37;15.07;;;6.72;;
23304;SDS011;11821;51.456;8.844;2023-04-08T00:38:04;7.97;;;6.03;;
23304;SDS011;11821;51.456;8.844;2023-04-08T00:40:33;6.70;;;5.45;;
23304;SDS011;11821;51.456;8.844;2023-04-08T00:43:00;8.35;;;5.75;;
23304;SDS011;11821;51.456;8.844;2023-04-08T00:45:26;20.23;;;7.93;;
23304;SDS011;11821;51.456;8.844;2023-04-08T00:47:53;17.27;;;7.53;;
23304;SDS011;11821;51.456;8.844;2023-04-08T00:50:19;16.63;;;6.97;;
23304;SDS011;11821;51.456;8.844;2023-04-08T00:52:46;14.02;;;8.27;;
23304;SDS011;11821;51.456;8.844;2023-04-08T00:55:13;12.80;;;7.95;;
23304;SDS011;11821;51.456;8.844;2023-04-08T00:57:40;12.77;;;8.18;;
23304;SDS011;11821;51.456;8.844;2023-04-08T01:00:07;21.58;;;8.52;;
23304;SDS011;11821;51.456;8.844;2023-04-08T01:02:42;22.13;;;7.80;;
23304;SDS011;11821;51.456;8.844;2023-04-08T01:05:12;18.35;;;8.07;;
23304;SDS011;11821;51.456;8.844;2023-04-08T01:07:40;30.23;;;9.15;;
23304;SDS011;11821;51.456;8.844;2023-04-08T01:10:12;11.35;;;7.68;;
23304;SDS011;11821;51.456;8.844;2023-04-08T01:12:41;12.60;;;7.85;;
23304;SDS011;11821;51.456;8.844;2023-04-08T01:15:10;18.85;;;9.93;;
23304;SDS011;11821;51.456;8.844;2023-04-08T01:17:38;22.35;;;9.88;;
23304;SDS011;11821;51.456;8.844;2023-04-08T01:20:06;22.35;;;8.50;;
23304;SDS011;11821;51.456;8.844;2023-04-08T01:22:46;19.92;;;8.60;;
23304;SDS011;11821;51.456;8.844;2023-04-08T01:25:23;24.48;;;9.90;;
23304;SDS011;11821;51.456;8.844;2023-04-08T01:27:51;14.70;;;9.80;;
23304;SDS011;11821;51.456;8.844;2023-04-08T01:30:21;21.55;;;10.25;;
23304;SDS011;11821;51.456;8.844;2023-04-08T01:32:49;32.92;;;11.27;;
23304;SDS011;11821;51.456;8.844;2023-04-08T01:35:16;28.52;;;11.52;;
23304;SDS011;11821;51.456;8.844;2023-04-08T01:37:43;22.70;;;10.20;;
23304;SDS011;11821;51.456;8.844;2023-04-08T01:40:10;23.65;;;10.95;;
23304;SDS011;11821;51.456;8.844;2023-04-08T01:42:37;19.35;;;10.93;;
23304;SDS011;11821;51.456;8.844;2023-04-08T01:45:04;12.02;;;8.52;;
23304;SDS011;11821;51.456;8.844;2023-04-08T01:47:31;16.15;;;10.55;;
23304;SDS011;11821;51.456;8.844;2023-04-08T01:49:59;10.55;;;8.98;;
23304;SDS011;11821;51.456;8.844;2023-04-08T01:52:26;9.60;;;7.38;;
23304;SDS011;11821;51.456;8.844;2023-04-08T01:54:54;12.68;;;10.57;;
23304;SDS011;11821;51.456;8.844;2023-04-08T01:57:25;12.75;;;9.05;;
23304;SDS011;11821;51.456;8.844;2023-04-08T01:59:54;10.93;;;8.95;;
23304;SDS011;11821;51.456;8.844;2023-04-08T02:02:23;11.38;;;10.18;;
23304;SDS011;11821;51.456;8.844;2023-04-08T02:04:51;11.23;;;9.70;;
23304;SDS011;11821;51.456;8.844;2023-04-08T02:07:18;11.10;;;9.60;;
23304;SDS011;11821;51.456;8.844;2023-04-08T02:09:45;11.15;;;9.57;;
23304;SDS011;11821;51.456;8.844;2023-04-08T02:12:12;9.10;;;8.20;;
23304;SDS011;11821;51.456;8.844;2023-04-08T02:14:38;10.18;;;9.07;;
23304;SDS011;11821;51.456;8.844;2023-04-08T02:17:09;8.20;;;6.78;;
23304;SDS011;11821;51.456;8.844;2023-04-08T02:19:46;8.70;;;7.85;;
23304;SDS011;11821;51.456;8.844;2023-04-08T02:22:22;9.30;;;7.78;;
23304;SDS011;11821;51.456;8.844;2023-04-08T02:24:50;8.98;;;8.02;;
23304;SDS011;11821;51.456;8.844;2023-04-08T02:27:19;10.32;;;9.07;;
23304;SDS011;11821;51.456;8.844;2023-04-08T02:29:46;10.18;;;7.68;;
23304;SDS011;11821;51.456;8.844;2023-04-08T02:32:13;10.77;;;7.75;;
23304;SDS011;11821;51.456;8.844;2023-04-08T02:34:40;8.20;;;7.38;;
23304;SDS011;11821;51.456;8.844;2023-04-08T02:37:07;9.30;;;8.40;;
23304;SDS011;11821;51.456;8.844;2023-04-08T02:39:34;7.53;;;6.82;;
23304;SDS011;11821;51.456;8.844;2023-04-08T02:42:01;9.15;;;7.63;;
23304;SDS011;11821;51.456;8.844;2023-04-08T02:44:29;11.32;;;8.23;;
23304;SDS011;11821;51.456;8.844;2023-04-08T02:47:00;8.68;;;7.88;;
23304;SDS011;11821;51.456;8.844;2023-04-08T02:49:26;8.43;;;7.53;;
23304;SDS011;11821;51.456;8.844;2023-04-08T02:51:53;8.32;;;7.53;;
23304;SDS011;11821;51.456;8.844;2023-04-08T02:54:20;9.50;;;8.50;;
23304;SDS011;11821;51.456;8.844;2023-04-08T02:56:47;8.65;;;7.60;;
23304;SDS011;11821;51.456;8.844;2023-04-08T02:59:13;9.85;;;8.85;;
23304;SDS011;11821;51.456;8.844;2023-04-08T03:01:40;9.20;;;8.30;;
23304;SDS011;11821;51.456;8.844;2023-04-08T03:04:07;8.85;;;8.05;;
23304;SDS011;11821;51.456;8.844;2023-04-08T03:06:33;10.23;;;8.98;;
23304;SDS011;11821;51.456;8.844;2023-04-08T03:09:00;10.75;;;9.75;;
23304;SDS011;11821;51.456;8.844;2023-04-08T03:11:26;10.80;;;9.68;;
23304;SDS011;11821;51.456;8.844;2023-04-08T03:13:53;10.20;;;9.20;;
23304;SDS011;11821;51.456;8.844;2023-04-08T03:16:19;10.77;;;9.77;;
23304;SDS011;11821;51.456;8.844;2023-04-08T03:18:48;7.80;;;7.03;;
23304;SDS011;11821;51.456;8.844;2023-04-08T03:21:14;9.23;;;8.23;;
23304;SDS011;11821;51.456;8.844;2023-04-08T03:23:41;9.98;;;8.93;;
23304;SDS011;11821;51.456;8.844;2023-04-08T03:26:08;9.18;;;8.25;;
23304;SDS011;11821;51.456;8.844;2023-04-08T03:28:34;9.65;;;8.75;;
23304;SDS011;11821;51.456;8.844;2023-04-08T03:31:02;6.05;;;5.47;;
23304;SDS011;11821;51.456;8.844;2023-04-08T03:33:28;9.73;;;8.57;;
23304;SDS011;11821;51.456;8.844;2023-04-08T03:35:55;7.55;;;6.85;;
23304;SDS011;11821;51.456;8.844;2023-04-08T03:38:22;10.18;;;8.80;;
23304;SDS011;11821;51.456;8.844;2023-04-08T03:40:48;9.43;;;8.52;;
23304;SDS011;11821;51.456;8.844;2023-04-08T03:43:15;8.82;;;7.93;;
23304;SDS011;11821;51.456;8.844;2023-04-08T03:45:44;9.20;;;8.40;;
23304;SDS011;11821;51.456;8.844;2023-04-08T03:48:10;8.68;;;7.68;;
23304;SDS011;11821;51.456;8.844;2023-04-08T03:50:37;9.45;;;8.55;;
23304;SDS011;11821;51.456;8.844;2023-04-08T03:53:03;9.43;;;8.57;;
23304;SDS011;11821;51.456;8.844;2023-04-08T03:55:30;9.20;;;8.30;;
23304;SDS011;11821;51.456;8.844;2023-04-08T03:57:56;10.32;;;9.32;;
23304;SDS011;11821;51.456;8.844;2023-04-08T04:00:23;10.48;;;8.85;;
23304;SDS011;11821;51.456;8.844;2023-04-08T04:02:49;9.75;;;8.73;;
23304;SDS011;11821;51.456;8.844;2023-04-08T04:05:16;9.52;;;8.48;;
23304;SDS011;11821;51.456;8.844;2023-04-08T04:07:43;10.32;;;9.25;;
23304;SDS011;11821;51.456;8.844;2023-04-08T04:10:09;10.55;;;9.38;;
23304;SDS011;11821;51.456;8.844;2023-04-08T04:12:36;8.75;;;7.85;;
23304;SDS011;11821;51.456;8.844;2023-04-08T04:15:03;8.75;;;7.88;;
23304;SDS011;11821;51.456;8.844;2023-04-08T04:17:30;9.50;;;8.57;;
23304;SDS011;11821;51.456;8.844;2023-04-08T04:19:56;6.53;;;5.93;;
23304;SDS011;11821;51.456;8.844;2023-04-08T04:22:23;9.27;;;8.38;;
23304;SDS011;11821;51.456;8.844;2023-04-08T04:24:49;10.85;;;9.57;;
23304;SDS011;11821;51.456;8.844;2023-04-08T04:27:16;10.85;;;9.05;;
23304;SDS011;11821;51.456;8.844;2023-04-08T04:29:42;12.10;;;10.10;;
23304;SDS011;11821;51.456;8.844;2023-04-08T04:32:09;9.05;;;8.18;;
23304;SDS011;11821;51.456;8.844;2023-04-08T04:34:35;12.32;;;10.23;;
23304;SDS011;11821;51.456;8.844;2023-04-08T04:37:02;10.63;;;8.52;;
23304;SDS011;11821;51.456;8.844;2023-04-08T04:39:29;11.68;;;9.80;;
23304;SDS011;11821;51.456;8.844;2023-04-08T04:41:55;5.68;;;5.15;;
23304;SDS011;11821;51.456;8.844;2023-04-08T04:44:22;10.00;;;9.07;;
23304;SDS011;11821;51.456;8.844;2023-04-08T04:46:48;9.75;;;8.85;;
23304;SDS011;11821;51.456;8.844;2023-04-08T04:49:15;12.52;;;9.70;;
23304;SDS011;11821;51.456;8.844;2023-04-08T04:51:42;11.13;;;10.02;;
23304;SDS011;11821;51.456;8.844;2023-04-08T04:54:09;11.32;;;10.25;;
23304;SDS011;11821;51.456;8.844;2023-04-08T04:56:35;10.75;;;9.30;;
23304;SDS011;11821;51.456;8.844;2023-04-08T04:59:02;10.77;;;9.77;;
23304;SDS011;11821;51.456;8.844;2023-04-08T05:01:30;11.20;;;9.70;;
23304;SDS011;11821;51.456;8.844;2023-04-08T05:03:59;12.27;;;9.77;;
23304;SDS011;11821;51.456;8.844;2023-04-08T05:06:26;10.27;;;9.35;;
23304;SDS011;11821;51.456;8.844;2023-04-08T05:08:52;10.40;;;9.35;;
23304;SDS011;11821;51.456;8.844;2023-04-08T05:11:19;10.70;;;9.63;;
23304;SDS011;11821;51.456;8.844;2023-04-08T05:13:46;10.43;;;9.43;;
23304;SDS011;11821;51.456;8.844;2023-04-08T05:16:13;6.50;;;5.47;;
23304;SDS011;11821;51.456;8.844;2023-04-08T05:18:39;12.10;;;10.00;;
23304;SDS011;11821;51.456;8.844;2023-04-08T05:21:06;11.70;;;10.50;;
23304;SDS011;11821;51.456;8.844;2023-04-08T05:23:36;42.65;;;29.65;;
23304;SDS011;11821;51.456;8.844;2023-04-08T05:26:05;16.23;;;13.55;;
23304;SDS011;11821;51.456;8.844;2023-04-08T05:28:32;14.77;;;13.07;;
23304;SDS011;11821;51.456;8.844;2023-04-08T05:30:58;11.57;;;10.43;;
23304;SDS011;11821;51.456;8.844;2023-04-08T05:33:25;13.55;;;10.13;;
23304;SDS011;11821;51.456;8.844;2023-04-08T05:35:52;10.07;;;9.07;;
23304;SDS011;11821;51.456;8.844;2023-04-08T05:38:18;12.18;;;10.50;;
23304;SDS011;11821;51.456;8.844;2023-04-08T05:40:45;10.82;;;9.73;;
23304;SDS011;11821;51.456;8.844;2023-04-08T05:43:11;13.40;;;11.00;;
23304;SDS011;11821;51.456;8.844;2023-04-08T05:45:38;11.73;;;10.52;;
23304;SDS011;11821;51.456;8.844;2023-04-08T05:48:04;10.98;;;9.88;;
23304;SDS011;11821;51.456;8.844;2023-04-08T05:50:33;13.00;;;10.88;;
23304;SDS011;11821;51.456;8.844;2023-04-08T05:53:00;13.10;;;9.48;;
23304;SDS011;11821;51.456;8.844;2023-04-08T05:55:27;10.30;;;9.20;;
23304;SDS011;11821;51.456;8.844;2023-04-08T05:57:53;14.95;;;12.13;;
23304;SDS011;11821;51.456;8.844;2023-04-08T06:00:20;11.68;;;10.48;;
23304;SDS011;11821;51.456;8.844;2023-04-08T06:02:47;15.07;;;11.07;;
23304;SDS011;11821;51.456;8.844;2023-04-08T06:05:14;11.32;;;10.18;;
23304;SDS011;11821;51.456;8.844;2023-04-08T06:07:40;11.25;;;10.05;;
23304;SDS011;11821;51.456;8.844;2023-04-08T06:10:07;10.95;;;9.85;;
23304;SDS011;11821;51.456;8.844;2023-04-08T06:12:34;17.83;;;11.55;;
23304;SDS011;11821;51.456;8.844;2023-04-08T06:15:01;11.30;;;10.02;;
23304;SDS011;11821;51.456;8.844;2023-04-08T06:17:29;12.95;;;10.65;;
23304;SDS011;11821;51.456;8.844;2023-04-08T06:19:55;12.65;;;9.63;;
23304;SDS011;11821;51.456;8.844;2023-04-08T06:22:22;10.80;;;9.70;;
23304;SDS011;11821;51.456;8.844;2023-04-08T06:24:48;7.53;;;6.45;;
23304;SDS011;11821;51.456;8.844;2023-04-08T06:27:15;11.70;;;10.50;;
23304;SDS011;11821;51.456;8.844;2023-04-08T06:29:41;13.00;;;11.63;;
23304;SDS011;11821;51.456;8.844;2023-04-08T06:32:08;31.02;;;23.98;;
23304;SDS011;11821;51.456;8.844;2023-04-08T06:34:35;19.80;;;17.40;;
23304;SDS011;11821;51.456;8.844;2023-04-08T06:37:01;21.77;;;17.38;;
23304;SDS011;11821;51.456;8.844;2023-04-08T06:39:28;19.65;;;17.05;;
23304;SDS011;11821;51.456;8.844;2023-04-08T06:41:54;11.68;;;10.55;;
23304;SDS011;11821;51.456;8.844;2023-04-08T06:44:35;13.02;;;11.38;;
23304;SDS011;11821;51.456;8.844;2023-04-08T06:47:01;14.48;;;13.05;;
23304;SDS011;11821;51.456;8.844;2023-04-08T06:49:28;7.22;;;6.47;;
23304;SDS011;11821;51.456;8.844;2023-04-08T06:51:55;12.32;;;10.40;;
23304;SDS011;11821;51.456;8.844;2023-04-08T06:54:21;11.40;;;10.30;;
23304;SDS011;11821;51.456;8.844;2023-04-08T06:56:48;12.52;;;11.23;;
23304;SDS011;11821;51.456;8.844;2023-04-08T06:59:14;12.65;;;11.27;;
23304;SDS011;11821;51.456;8.844;2023-04-08T07:01:41;11.77;;;10.55;;
23304;SDS011;11821;51.456;8.844;2023-04-08T07:04:08;11.45;;;10.45;;
23304;SDS011;11821;51.456;8.844;2023-04-08T07:06:34;12.85;;;11.65;;
23304;SDS011;11821;51.456;8.844;2023-04-08T07:09:01;12.35;;;11.15;;
23304;SDS011;11821;51.456;8.844;2023-04-08T07:11:27;17.52;;;11.95;;
23304;SDS011;11821;51.456;8.844;2023-04-08T07:13:54;14.43;;;12.35;;
23304;SDS011;11821;51.456;8.844;2023-04-08T07:16:20;7.38;;;6.72;;
23304;SDS011;11821;51.456;8.844;2023-04-08T07:18:47;11.50;;;10.23;;
23304;SDS011;11821;51.456;8.844;2023-04-08T07:21:14;10.93;;;9.93;;
23304;SDS011;11821;51.456;8.844;2023-04-08T07:23:42;10.15;;;9.18;;
23304;SDS011;11821;51.456;8.844;2023-04-08T07:26:09;12.90;;;11.60;;
23304;SDS011;11821;51.456;8.844;2023-04-08T07:28:35;13.73;;;12.50;;
23304;SDS011;11821;51.456;8.844;2023-04-08T07:31:12;13.38;;;11.80;;
23304;SDS011;11821;51.456;8.844;2023-04-08T07:33:38;11.15;;;10.15;;
23304;SDS011;11821;51.456;8.844;2023-04-08T07:36:05;13.80;;;12.40;;
23304;SDS011;11821;51.456;8.844;2023-04-08T07:38:31;12.95;;;10.32;;
23304;SDS011;11821;51.456;8.844;2023-04-08T07:40:58;13.80;;;11.70;;
23304;SDS011;11821;51.456;8.844;2023-04-08T07:43:25;14.32;;;11.45;;
23304;SDS011;11821;51.456;8.844;2023-04-08T07:45:52;11.55;;;10.45;;
23304;SDS011;11821;51.456;8.844;2023-04-08T07:48:18;11.10;;;9.95;;
23304;SDS011;11821;51.456;8.844;2023-04-08T07:50:45;11.27;;;9.63;;
23304;SDS011;11821;51.456;8.844;2023-04-08T07:53:12;6.60;;;5.97;;
23304;SDS011;11821;51.456;8.844;2023-04-08T07:55:39;11.63;;;10.52;;
23304;SDS011;11821;51.456;8.844;2023-04-08T07:58:06;9.30;;;8.40;;
23304;SDS011;11821;51.456;8.844;2023-04-08T08:00:33;10.00;;;9.02;;
23304;SDS011;11821;51.456;8.844;2023-04-08T08:03:00;7.68;;;6.28;;
23304;SDS011;11821;51.456;8.844;2023-04-08T08:05:26;7.60;;;6.90;;
23304;SDS011;11821;51.456;8.844;2023-04-08T08:07:53;7.28;;;5.70;;
23304;SDS011;11821;51.456;8.844;2023-04-08T08:10:19;9.02;;;8.13;;
23304;SDS011;11821;51.456;8.844;2023-04-08T08:12:46;6.47;;;5.68;;
23304;SDS011;11821;51.456;8.844;2023-04-08T08:15:12;8.80;;;8.00;;
23304;SDS011;11821;51.456;8.844;2023-04-08T08:17:39;9.95;;;9.05;;
23304;SDS011;11821;51.456;8.844;2023-04-08T08:20:06;10.63;;;9.32;;
23304;SDS011;11821;51.456;8.844;2023-04-08T08:22:33;12.30;;;11.07;;
23304;SDS011;11821;51.456;8.844;2023-04-08T08:24:59;12.63;;;11.43;;
23304;SDS011;11821;51.456;8.844;2023-04-08T08:27:26;12.52;;;11.23;;
23304;SDS011;11821;51.456;8.844;2023-04-08T08:29:52;11.38;;;10.27;;
23304;SDS011;11821;51.456;8.844;2023-04-08T08:32:19;10.82;;;9.50;;
23304;SDS011;11821;51.456;8.844;2023-04-08T08:34:46;9.57;;;8.68;;
23304;SDS011;11821;51.456;8.844;2023-04-08T08:37:12;10.63;;;8.10;;
23304;SDS011;11821;51.456;8.844;2023-04-08T08:39:39;11.45;;;10.45;;
23304;SDS011;11821;51.456;8.844;2023-04-08T08:42:05;11.88;;;10.20;;
23304;SDS011;11821;51.456;8.844;2023-04-08T08:44:33;10.50;;;9.50;;
23304;SDS011;11821;51.456;8.844;2023-04-08T08:47:00;12.23;;;11.13;;
23304;SDS011;11821;51.456;8.844;2023-04-08T08:49:30;12.65;;;11.45;;
23304;SDS011;11821;51.456;8.844;2023-04-08T08:51:56;11.95;;;10.75;;
23304;SDS011;11821;51.456;8.844;2023-04-08T08:54:24;15.90;;;12.23;;
23304;SDS011;11821;51.456;8.844;2023-04-08T08:56:51;11.73;;;10.60;;
23304;SDS011;11821;51.456;8.844;2023-04-08T08:59:18;11.43;;;10.32;;
23304;SDS011;11821;51.456;8.844;2023-04-08T09:01:44;11.07;;;9.98;;
23304;SDS011;11821;51.456;8.844;2023-04-08T09:06:43;13.82;;;12.40;;
23304;SDS011;11821;51.456;8.844;2023-04-08T09:09:11;13.95;;;11.45;;
23304;SDS011;11821;51.456;8.844;2023-04-08T09:11:38;12.13;;;10.48;;
23304;SDS011;11821;51.456;8.844;2023-04-08T09:14:16;13.07;;;11.27;;
23304;SDS011;11821;51.456;8.844;2023-04-08T09:16:43;11.15;;;10.15;;
23304;SDS011;11821;51.456;8.844;2023-04-08T09:19:10;11.23;;;10.13;;
23304;SDS011;11821;51.456;8.844;2023-04-08T09:21:37;11.20;;;10.10;;
23304;SDS011;11821;51.456;8.844;2023-04-08T09:24:05;11.60;;;10.38;;
23304;SDS011;11821;51.456;8.844;2023-04-08T09:26:32;11.15;;;10.05;;
23304;SDS011;11821;51.456;8.844;2023-04-08T09:29:03;11.90;;;10.70;;
23304;SDS011;11821;51.456;8.844;2023-04-08T09:31:39;11.85;;;10.70;;
23304;SDS011;11821;51.456;8.844;2023-04-08T09:34:09;11.73;;;10.63;;
23304;SDS011;11821;51.456;8.844;2023-04-08T09:36:36;11.35;;;10.25;;
23304;SDS011;11821;51.456;8.844;2023-04-08T09:39:03;13.07;;;11.10;;
23304;SDS011;11821;51.456;8.844;2023-04-08T09:41:34;12.60;;;11.32;;
23304;SDS011;11821;51.456;8.844;2023-04-08T09:44:05;11.80;;;10.63;;
23304;SDS011;11821;51.456;8.844;2023-04-08T09:51:44;13.00;;;11.70;;
23304;SDS011;11821;51.456;8.844;2023-04-08T09:54:14;13.10;;;11.65;;
23304;SDS011;11821;51.456;8.844;2023-04-08T09:56:46;13.73;;;11.45;;
23304;SDS011;11821;51.456;8.844;2023-04-08T09:59:15;13.25;;;11.90;;
23304;SDS011;11821;51.456;8.844;2023-04-08T10:01:44;14.38;;;12.00;;
23304;SDS011;11821;51.456;8.844;2023-04-08T10:04:13;13.35;;;12.05;;
23304;SDS011;11821;51.456;8.844;2023-04-08T10:06:42;15.27;;;12.60;;
23304;SDS011;11821;51.456;8.844;2023-04-08T10:09:08;13.18;;;11.88;;
23304;SDS011;11821;51.456;8.844;2023-04-08T10:11:35;11.70;;;10.50;;
23304;SDS011;11821;51.456;8.844;2023-04-08T10:14:02;12.88;;;11.25;;
23304;SDS011;11821;51.456;8.844;2023-04-08T10:16:28;13.18;;;11.88;;
23304;SDS011;11821;51.456;8.844;2023-04-08T10:18:55;12.48;;;11.18;;
23304;SDS011;11821;51.456;8.844;2023-04-08T10:21:38;12.80;;;11.50;;
23304;SDS011;11821;51.456;8.844;2023-04-08T10:24:09;13.95;;;11.75;;
23304;SDS011;11821;51.456;8.844;2023-04-08T10:26:42;12.43;;;11.00;;
23304;SDS011;11821;51.456;8.844;2023-04-08T10:31:46;13.30;;;12.02;;
23304;SDS011;11821;51.456;8.844;2023-04-08T10:34:16;13.00;;;11.70;;
23304;SDS011;11821;51.456;8.844;2023-04-08T10:36:46;13.73;;;12.30;;
23304;SDS011;11821;51.456;8.844;2023-04-08T10:39:13;13.55;;;12.10;;
23304;SDS011;11821;51.456;8.844;2023-04-08T10:41:47;13.07;;;11.57;;
23304;SDS011;11821;51.456;8.844;2023-04-08T10:44:17;14.52;;;11.98;;
23304;SDS011;11821;51.456;8.844;2023-04-08T10:46:47;16.35;;;13.00;;
23304;SDS011;11821;51.456;8.844;2023-04-08T10:49:14;13.85;;;11.75;;
23304;SDS011;11821;51.456;8.844;2023-04-08T10:51:42;13.52;;;12.15;;
23304;SDS011;11821;51.456;8.844;2023-04-08T10:54:13;14.27;;;12.57;;
23304;SDS011;11821;51.456;8.844;2023-04-08T10:56:43;17.13;;;12.30;;
23304;SDS011;11821;51.456;8.844;2023-04-08T10:59:11;14.50;;;10.82;;
23304;SDS011;11821;51.456;8.844;2023-04-08T11:01:41;12.43;;;11.13;;
23304;SDS011;11821;51.456;8.844;2023-04-08T11:04:13;12.43;;;11.23;;
23304;SDS011;11821;51.456;8.844;2023-04-08T11:06:43;14.40;;;11.85;;
23304;SDS011;11821;51.456;8.844;2023-04-08T11:09:10;15.20;;;12.32;;
23304;SDS011;11821;51.456;8.844;2023-04-08T11:11:37;13.02;;;11.70;;
23304;SDS011;11821;51.456;8.844;2023-04-08T11:14:03;14.68;;;12.68;;
23304;SDS011;11821;51.456;8.844;2023-04-08T11:16:30;13.45;;;12.15;;
23304;SDS011;11821;51.456;8.844;2023-04-08T11:18:57;12.52;;;11.20;;
23304;SDS011;11821;51.456;8.844;2023-04-08T11:21:24;11.70;;;10.57;;
23304;SDS011;11821;51.456;8.844;2023-04-08T11:23:54;13.18;;;11.82;;
23304;SDS011;11821;51.456;8.844;2023-04-08T11:26:20;13.90;;;11.70;;
23304;SDS011;11821;51.456;8.844;2023-04-08T11:28:47;13.30;;;12.00;;
23304;SDS011;11821;51.456;8.844;2023-04-08T11:31:16;13.40;;;12.00;;
23304;SDS011;11821;51.456;8.844;2023-04-08T11:33:44;13.07;;;11.73;;
23304;SDS011;11821;51.456;8.844;2023-04-08T11:36:11;12.95;;;11.65;;
23304;SDS011;11821;51.456;8.844;2023-04-08T11:38:38;13.45;;;11.35;;
23304;SDS011;11821;51.456;8.844;2023-04-08T11:41:08;24.23;;;17.95;;
23304;SDS011;11821;51.456;8.844;2023-04-08T11:43:36;12.00;;;10.75;;
23304;SDS011;11821;51.456;8.844;2023-04-08T11:46:09;13.13;;;11.63;;
23304;SDS011;11821;51.456;8.844;2023-04-08T11:48:40;16.38;;;14.55;;
23304;SDS011;11821;51.456;8.844;2023-04-08T11:51:07;13.07;;;11.80;;
23304;SDS011;11821;51.456;8.844;2023-04-08T11:53:34;14.60;;;12.27;;
23304;SDS011;11821;51.456;8.844;2023-04-08T11:56:17;12.85;;;11.55;;
23304;SDS011;11821;51.456;8.844;2023-04-08T12:01:11;12.63;;;10.93;;
23304;SDS011;11821;51.456;8.844;2023-04-08T12:03:37;14.30;;;12.80;;
23304;SDS011;11821;51.456;8.844;2023-04-08T12:06:04;13.88;;;12.35;;
23304;SDS011;11821;51.456;8.844;2023-04-08T12:08:33;13.30;;;11.45;;
23304;SDS011;11821;51.456;8.844;2023-04-08T12:10:59;23.75;;;16.80;;
23304;SDS011;11821;51.456;8.844;2023-04-08T12:13:27;12.48;;;10.95;;
23304;SDS011;11821;51.456;8.844;2023-04-08T12:15:53;19.33;;;13.60;;
23304;SDS011;11821;51.456;8.844;2023-04-08T12:18:20;20.30;;;13.85;;
23304;SDS011;11821;51.456;8.844;2023-04-08T12:20:47;12.68;;;11.38;;
23304;SDS011;11821;51.456;8.844;2023-04-08T12:23:13;35.67;;;20.25;;
23304;SDS011;11821;51.456;8.844;2023-04-08T12:25:41;13.13;;;11.50;;
23304;SDS011;11821;51.456;8.844;2023-04-08T12:28:07;18.92;;;14.50;;
23304;SDS011;11821;51.456;8.844;2023-04-08T12:30:36;17.05;;;12.82;;
23304;SDS011;11821;51.456;8.844;2023-04-08T12:33:02;13.35;;;11.90;;
23304;SDS011;11821;51.456;8.844;2023-04-08T12:35:29;23.50;;;16.00;;
23304;SDS011;11821;51.456;8.844;2023-04-08T12:37:56;16.33;;;13.45;;
23304;SDS011;11821;51.456;8.844;2023-04-08T12:40:22;16.50;;;13.23;;
23304;SDS011;11821;51.456;8.844;2023-04-08T12:42:49;16.02;;;13.23;;
23304;SDS011;11821;51.456;8.844;2023-04-08T12:45:15;16.75;;;12.85;;
23304;SDS011;11821;51.456;8.844;2023-04-08T12:47:42;14.13;;;12.43;;
23304;SDS011;11821;51.456;8.844;2023-04-08T12:50:09;13.82;;;12.43;;
23304;SDS011;11821;51.456;8.844;2023-04-08T12:52:35;14.43;;;12.32;;
23304;SDS011;11821;51.456;8.844;2023-04-08T12:55:02;16.38;;;12.98;;
23304;SDS011;11821;51.456;8.844;2023-04-08T12:57:29;15.90;;;13.18;;
23304;SDS011;11821;51.456;8.844;2023-04-08T12:59:56;23.50;;;17.65;;
23304;SDS011;11821;51.456;8.844;2023-04-08T13:02:23;18.38;;;15.35;;
23304;SDS011;11821;51.456;8.844;2023-04-08T13:04:51;14.80;;;13.10;;
23304;SDS011;11821;51.456;8.844;2023-04-08T13:07:19;16.05;;;14.35;;
23304;SDS011;11821;51.456;8.844;2023-04-08T13:09:46;16.58;;;12.88;;
23304;SDS011;11821;51.456;8.844;2023-04-08T13:12:13;13.48;;;12.05;;
23304;SDS011;11821;51.456;8.844;2023-04-08T13:14:40;15.13;;;11.18;;
23304;SDS011;11821;51.456;8.844;2023-04-08T13:17:07;12.07;;;10.88;;
23304;SDS011;11821;51.456;8.844;2023-04-08T13:19:34;13.95;;;12.45;;
23304;SDS011;11821;51.456;8.844;2023-04-08T13:22:00;12.18;;;11.00;;
23304;SDS011;11821;51.456;8.844;2023-04-08T13:24:27;13.18;;;11.10;;
23304;SDS011;11821;51.456;8.844;2023-04-08T13:26:53;12.68;;;10.80;;
23304;SDS011;11821;51.456;8.844;2023-04-08T13:29:20;13.05;;;11.55;;
23304;SDS011;11821;51.456;8.844;2023-04-08T13:31:47;12.32;;;11.13;;
23304;SDS011;11821;51.456;8.844;2023-04-08T13:34:13;12.95;;;11.65;;
23304;SDS011;11821;51.456;8.844;2023-04-08T13:36:40;13.27;;;11.70;;
23304;SDS011;11821;51.456;8.844;2023-04-08T13:39:06;13.05;;;11.70;;
23304;SDS011;11821;51.456;8.844;2023-04-08T13:41:33;12.98;;;11.68;;
23304;SDS011;11821;51.456;8.844;2023-04-08T13:44:00;11.75;;;10.25;;
23304;SDS011;11821;51.456;8.844;2023-04-08T13:46:26;11.60;;;10.40;;
23304;SDS011;11821;51.456;8.844;2023-04-08T13:48:53;10.82;;;9.73;;
23304;SDS011;11821;51.456;8.844;2023-04-08T13:51:19;12.15;;;10.88;;
23304;SDS011;11821;51.456;8.844;2023-04-08T13:53:46;11.60;;;10.40;;
23304;SDS011;11821;51.456;8.844;2023-04-08T13:56:12;12.25;;;10.90;;
23304;SDS011;11821;51.456;8.844;2023-04-08T13:58:39;11.80;;;9.90;;
23304;SDS011;11821;51.456;8.844;2023-04-08T14:01:06;11.73;;;10.48;;
23304;SDS011;11821;51.456;8.844;2023-04-08T14:03:32;12.55;;;11.18;;
23304;SDS011;11821;51.456;8.844;2023-04-08T14:05:59;11.23;;;10.02;;
23304;SDS011;11821;51.456;8.844;2023-04-08T14:08:26;12.27;;;10.50;;
23304;SDS011;11821;51.456;8.844;2023-04-08T14:10:56;12.60;;;11.27;;
23304;SDS011;11821;51.456;8.844;2023-04-08T14:13:22;14.52;;;11.65;;
23304;SDS011;11821;51.456;8.844;2023-04-08T14:15:49;13.35;;;11.18;;
23304;SDS011;11821;51.456;8.844;2023-04-08T14:18:18;13.70;;;11.45;;
23304;SDS011;11821;51.456;8.844;2023-04-08T14:20:44;14.20;;;11.68;;
23304;SDS011;11821;51.456;8.844;2023-04-08T14:23:11;14.05;;;12.60;;
23304;SDS011;11821;51.456;8.844;2023-04-08T14:25:38;13.07;;;11.68;;
23304;SDS011;11821;51.456;8.844;2023-04-08T14:28:05;13.13;;;11.50;;
23304;SDS011;11821;51.456;8.844;2023-04-08T14:30:31;13.18;;;11.07;;
23304;SDS011;11821;51.456;8.844;2023-04-08T14:32:59;13.65;;;11.95;;
23304;SDS011;11821;51.456;8.844;2023-04-08T14:35:27;11.70;;;10.50;;
23304;SDS011;11821;51.456;8.844;2023-04-08T14:37:53;13.00;;;11.60;;
23304;SDS011;11821;51.456;8.844;2023-04-08T14:40:21;14.18;;;12.02;;
23304;SDS011;11821;51.456;8.844;2023-04-08T14:42:47;16.25;;;11.73;;